createdAt,value
2023-05-17T00:01:10.580Z,10.54
2023-05-17T00:03:38.485Z,10.65
2023-05-17T00:06:06.419Z,10.50
2023-05-17T00:08:34.627Z,10.30
2023-05-17T00:11:02.503Z,10.38
2023-05-17T00:13:30.622Z,10.24
2023-05-17T00:15:58.493Z,10.27
2023-05-17T00:18:26.516Z,10.31
2023-05-17T00:20:54.520Z,10.22
2023-05-17T00:23:22.393Z,10.14
2023-05-17T00:25:51.132Z,10.10
2023-05-17T00:28:19.007Z,10.13
2023-05-17T00:30:46.952Z,10.30
2023-05-17T00:33:14.866Z,10.18
2023-05-17T00:35:42.840Z,10.22
2023-05-17T00:38:10.721Z,10.32
2023-05-17T00:40:38.610Z,10.25
2023-05-17T00:43:06.551Z,10.14
2023-05-17T00:45:35.094Z,10.07
2023-05-17T00:48:03.657Z,10.10
2023-05-17T00:50:32.033Z,10.21
2023-05-17T00:53:00.880Z,10.14
2023-05-17T00:55:29.972Z,9.92
2023-05-17T00:57:58.139Z,10.12
2023-05-17T01:00:26.179Z,10.04
2023-05-17T01:02:54.111Z,10.07
2023-05-17T01:05:21.976Z,10.17
2023-05-17T01:07:50.055Z,9.96
2023-05-17T01:10:18.028Z,9.76
2023-05-17T01:13:20.219Z,9.71
2023-05-17T01:16:14.738Z,9.69
2023-05-17T01:18:57.711Z,9.70
2023-05-17T01:21:34.777Z,9.61
2023-05-17T01:24:24.470Z,9.72
2023-05-17T01:26:54.397Z,9.74
2023-05-17T01:29:27.235Z,9.81
2023-05-17T01:31:57.209Z,9.91
2023-05-17T01:34:26.761Z,9.86
2023-05-17T01:36:54.766Z,9.52
2023-05-17T01:39:22.722Z,9.43
2023-05-17T01:41:55.517Z,9.39
2023-05-17T01:44:33.584Z,9.58
2023-05-17T01:47:14.832Z,9.43
2023-05-17T01:49:48.115Z,9.49
2023-05-17T01:52:26.090Z,9.58
2023-05-17T01:55:11.271Z,9.49
2023-05-17T01:57:43.764Z,9.66
2023-05-17T02:00:13.148Z,9.54
2023-05-17T02:02:45.459Z,9.64
2023-05-17T02:05:14.376Z,9.55
2023-05-17T02:07:42.707Z,9.67
2023-05-17T02:10:10.890Z,9.51
2023-05-17T02:12:43.604Z,9.45
2023-05-17T02:15:12.199Z,9.32
2023-05-17T02:17:41.064Z,9.45
2023-05-17T02:20:10.432Z,9.42
2023-05-17T02:22:38.347Z,9.39
2023-05-17T02:25:07.489Z,9.49
2023-05-17T02:27:36.131Z,9.42
2023-05-17T02:30:04.892Z,9.42
2023-05-17T02:32:33.255Z,9.53
2023-05-17T02:35:01.225Z,9.37
2023-05-17T02:37:29.244Z,9.30
2023-05-17T02:39:57.176Z,9.41
2023-05-17T02:42:25.029Z,9.35
2023-05-17T02:44:56.224Z,9.37
2023-05-17T02:47:24.200Z,9.38
2023-05-17T02:49:52.249Z,9.40
2023-05-17T02:52:20.122Z,9.44
2023-05-17T02:54:48.866Z,9.42
2023-05-17T02:57:17.141Z,9.63
2023-05-17T02:59:45.032Z,9.64
2023-05-17T03:02:13.356Z,9.50
2023-05-17T03:04:41.389Z,9.44
2023-05-17T03:07:10.033Z,9.37
2023-05-17T03:09:38.713Z,9.42
2023-05-17T03:12:07.594Z,9.44
2023-05-17T03:14:36.172Z,9.40
2023-05-17T03:17:04.340Z,9.50
2023-05-17T03:19:34.987Z,9.44
2023-05-17T03:22:02.925Z,9.49
2023-05-17T03:24:33.119Z,9.46
2023-05-17T03:27:01.918Z,9.44
2023-05-17T03:29:29.849Z,9.53
2023-05-17T03:31:57.869Z,9.48
2023-05-17T03:34:26.148Z,9.51
2023-05-17T03:36:54.303Z,9.41
2023-05-17T03:39:22.439Z,9.42
2023-05-17T03:41:51.138Z,9.40
2023-05-17T03:44:19.568Z,9.43
2023-05-17T03:46:47.486Z,9.48
2023-05-17T03:49:15.866Z,9.62
2023-05-17T03:51:45.144Z,9.37
2023-05-17T03:54:13.080Z,9.53
2023-05-17T03:56:40.948Z,9.53
2023-05-17T03:59:10.411Z,9.50
2023-05-17T04:01:38.326Z,9.55
2023-05-17T04:04:06.627Z,9.59
2023-05-17T04:06:34.568Z,9.58
2023-05-17T04:09:02.501Z,9.50
2023-05-17T04:11:33.167Z,9.47
2023-05-17T04:14:01.069Z,9.53
2023-05-17T04:16:29.063Z,9.53
2023-05-17T04:18:57.116Z,9.49
2023-05-17T04:21:25.073Z,9.52
2023-05-17T04:23:53.366Z,9.38
2023-05-17T04:26:21.206Z,9.36
2023-05-17T04:28:49.859Z,9.44
2023-05-17T04:31:18.689Z,9.36
2023-05-17T04:33:47.130Z,9.42
2023-05-17T04:36:15.091Z,9.35
2023-05-17T04:38:43.881Z,9.27
2023-05-17T04:41:16.145Z,9.37
2023-05-17T04:43:44.579Z,9.35
2023-05-17T04:46:20.636Z,9.31
2023-05-17T04:48:49.483Z,9.31
2023-05-17T04:51:17.569Z,9.37
2023-05-17T04:53:45.501Z,9.22
2023-05-17T04:56:17.662Z,9.36
2023-05-17T04:58:45.913Z,9.39
2023-05-17T05:01:14.429Z,9.36
2023-05-17T05:03:42.391Z,9.24
2023-05-17T05:06:12.749Z,9.22
2023-05-17T05:08:41.110Z,9.27
2023-05-17T05:11:11.443Z,9.26
2023-05-17T05:13:39.404Z,9.20
2023-05-17T05:16:08.672Z,9.19
2023-05-17T05:18:38.214Z,9.26
2023-05-17T05:21:06.722Z,9.33
2023-05-17T05:23:34.620Z,9.12
2023-05-17T05:26:02.543Z,9.22
2023-05-17T05:28:30.864Z,9.26
2023-05-17T05:30:59.975Z,9.25
2023-05-17T05:33:32.910Z,9.20
2023-05-17T05:36:00.929Z,9.18
2023-05-17T05:38:28.985Z,9.12
2023-05-17T05:40:57.046Z,9.03
2023-05-17T05:43:24.996Z,8.99
2023-05-17T05:45:53.033Z,8.99
2023-05-17T05:48:22.568Z,9.00
2023-05-17T05:50:50.664Z,9.04
2023-05-17T05:53:19.715Z,9.05
2023-05-17T05:55:55.042Z,9.09
2023-05-17T05:58:22.966Z,8.96
2023-05-17T06:00:52.062Z,9.06
2023-05-17T06:03:19.956Z,9.16
2023-05-17T06:05:47.893Z,9.19
2023-05-17T06:08:17.605Z,9.03
2023-05-17T06:10:46.029Z,9.04
2023-05-17T06:13:14.061Z,8.99
2023-05-17T06:15:42.041Z,9.03
2023-05-17T06:18:10.127Z,9.08
2023-05-17T06:20:38.114Z,9.02
2023-05-17T06:23:05.962Z,8.94
2023-05-17T06:25:33.901Z,8.92
2023-05-17T06:28:03.038Z,8.95
2023-05-17T06:30:31.854Z,8.90
2023-05-17T06:33:00.391Z,8.83
2023-05-17T06:35:30.114Z,8.91
2023-05-17T06:37:59.373Z,8.96
2023-05-17T06:40:27.321Z,8.80
2023-05-17T06:42:55.191Z,8.76
2023-05-17T06:45:23.145Z,8.76
2023-05-17T06:47:51.053Z,8.71
2023-05-17T06:50:18.966Z,8.69
2023-05-17T06:52:46.864Z,8.65
2023-05-17T06:55:14.740Z,8.82
2023-05-17T06:57:42.648Z,8.85
2023-05-17T07:00:11.347Z,8.98
2023-05-17T07:02:39.396Z,8.89
2023-05-17T07:05:07.891Z,8.85
2023-05-17T07:07:36.180Z,8.88
2023-05-17T07:10:05.546Z,8.95
2023-05-17T07:12:34.172Z,8.88
2023-05-17T07:15:02.926Z,8.96
2023-05-17T07:17:31.494Z,8.88
2023-05-17T07:20:00.000Z,8.85
2023-05-17T07:22:28.095Z,8.87
2023-05-17T07:24:55.950Z,8.91
2023-05-17T07:27:23.812Z,8.86
2023-05-17T07:29:51.696Z,8.87
2023-05-17T07:32:19.572Z,8.91
2023-05-17T07:34:47.464Z,8.91
2023-05-17T07:37:15.518Z,8.98
2023-05-17T07:39:43.459Z,8.86
2023-05-17T07:42:11.403Z,8.77
2023-05-17T07:44:39.241Z,8.81
2023-05-17T07:47:07.152Z,8.72
2023-05-17T07:49:35.082Z,8.80
2023-05-17T07:52:03.918Z,8.77
2023-05-17T07:54:31.832Z,8.88
2023-05-17T07:57:00.308Z,9.02
2023-05-17T07:59:28.260Z,8.91
2023-05-17T08:01:57.043Z,8.88
2023-05-17T08:04:24.921Z,9.05
2023-05-17T08:06:52.888Z,9.10
2023-05-17T08:09:20.905Z,9.07
2023-05-17T08:11:48.844Z,9.11
2023-05-17T08:14:17.674Z,9.23
2023-05-17T08:16:46.858Z,9.10
2023-05-17T08:19:15.996Z,9.19
2023-05-17T08:21:46.217Z,9.16
2023-05-17T08:24:14.173Z,9.28
2023-05-17T08:26:42.172Z,9.25
2023-05-17T08:29:10.063Z,9.24
2023-05-17T08:31:37.973Z,9.29
2023-05-17T08:34:06.400Z,9.28
2023-05-17T08:36:34.603Z,9.29
2023-05-17T08:39:03.751Z,9.35
2023-05-17T08:41:32.791Z,9.31
2023-05-17T08:44:03.526Z,9.34
2023-05-17T08:46:33.687Z,9.40
2023-05-17T08:49:04.104Z,9.38
2023-05-17T08:51:32.906Z,9.46
2023-05-17T08:54:05.803Z,9.41
2023-05-17T08:56:36.770Z,9.31
2023-05-17T08:59:06.589Z,9.32
2023-05-17T09:01:34.621Z,9.32
2023-05-17T09:04:02.868Z,9.40
2023-05-17T09:06:33.678Z,9.47
2023-05-17T09:09:01.884Z,9.34
2023-05-17T09:11:32.907Z,9.32
2023-05-17T09:14:02.113Z,9.35
2023-05-17T09:16:35.308Z,9.27
2023-05-17T09:19:05.733Z,9.37
2023-05-17T09:21:34.437Z,9.44
2023-05-17T09:24:07.439Z,9.38
2023-05-17T09:26:44.227Z,9.36
2023-05-17T09:29:15.115Z,9.48
2023-05-17T09:31:44.369Z,9.63
2023-05-17T09:34:12.420Z,9.58
2023-05-17T09:36:43.870Z,9.54
2023-05-17T09:39:13.626Z,9.47
2023-05-17T09:41:43.199Z,9.55
2023-05-17T09:44:12.528Z,9.61
2023-05-17T09:46:48.445Z,9.61
2023-05-17T09:49:17.854Z,9.70
2023-05-17T09:51:48.280Z,9.58
2023-05-17T09:54:17.756Z,9.74
2023-05-17T09:56:53.611Z,9.79
2023-05-17T09:59:24.561Z,9.73
2023-05-17T10:01:54.460Z,9.75
2023-05-17T10:04:27.567Z,9.66
2023-05-17T10:06:56.585Z,9.75
2023-05-17T10:09:26.764Z,9.66
2023-05-17T10:11:57.954Z,9.67
2023-05-17T10:14:33.869Z,9.63
2023-05-17T10:17:03.318Z,9.81
2023-05-17T10:19:31.977Z,9.69
2023-05-17T10:22:18.983Z,9.82
2023-05-17T10:24:51.825Z,9.76
2023-05-17T10:27:20.919Z,9.77
2023-05-17T10:29:50.759Z,9.87
2023-05-17T10:32:23.496Z,9.86
2023-05-17T10:35:05.905Z,9.87
2023-05-17T10:37:40.550Z,9.90
2023-05-17T10:40:13.676Z,10.00
2023-05-17T10:42:46.840Z,10.06
2023-05-17T10:45:15.366Z,10.30
2023-05-17T10:47:43.617Z,10.37
2023-05-17T10:50:15.657Z,10.11
2023-05-17T10:52:48.256Z,10.17
2023-05-17T10:55:23.212Z,10.19
2023-05-17T10:58:13.505Z,10.29
2023-05-17T11:00:43.006Z,10.33
2023-05-17T11:03:15.413Z,10.34
2023-05-17T11:05:46.395Z,10.33
2023-05-17T11:08:18.549Z,10.34
2023-05-17T11:11:09.569Z,10.37
2023-05-17T11:13:55.055Z,10.36
2023-05-17T11:16:28.688Z,10.28
2023-05-17T11:19:07.453Z,10.33
2023-05-17T11:21:36.045Z,10.34
2023-05-17T11:24:05.165Z,10.26
2023-05-17T11:26:37.064Z,10.30
2023-05-17T11:29:08.439Z,10.38
2023-05-17T11:31:37.983Z,10.41
2023-05-17T11:34:06.620Z,10.39
2023-05-17T11:36:53.403Z,10.44
2023-05-17T11:39:23.132Z,10.41
2023-05-17T11:41:53.220Z,10.51
2023-05-17T11:44:35.100Z,10.58
2023-05-17T11:47:11.410Z,10.63
2023-05-17T11:49:40.440Z,10.65
2023-05-17T11:52:08.867Z,10.58
2023-05-17T11:54:39.053Z,10.70
2023-05-17T11:57:07.214Z,10.67
2023-05-17T11:59:40.048Z,10.70
2023-05-17T12:02:08.453Z,10.71
2023-05-17T12:04:38.209Z,10.66
2023-05-17T12:07:10.747Z,10.82
2023-05-17T12:09:39.330Z,10.66
2023-05-17T12:12:08.585Z,10.67
2023-05-17T12:14:36.974Z,10.49
2023-05-17T12:17:09.199Z,10.46
2023-05-17T12:19:37.466Z,10.45
2023-05-17T12:22:08.393Z,10.48
2023-05-17T12:24:37.985Z,10.48
2023-05-17T12:27:06.205Z,10.53
2023-05-17T12:29:34.132Z,10.57
2023-05-17T12:32:02.558Z,10.51
2023-05-17T12:34:31.142Z,10.42
2023-05-17T12:36:59.635Z,10.48
2023-05-17T12:39:27.589Z,10.52
2023-05-17T12:41:55.823Z,10.46
2023-05-17T12:44:25.574Z,10.48
2023-05-17T12:46:56.529Z,10.54
2023-05-17T12:49:24.522Z,10.63
2023-05-17T12:51:52.414Z,10.67
2023-05-17T12:54:30.242Z,10.66
2023-05-17T12:56:58.458Z,10.75
2023-05-17T12:59:26.477Z,10.74
2023-05-17T13:01:58.243Z,10.68
2023-05-17T13:04:32.074Z,10.74
2023-05-17T13:07:03.218Z,10.69
2023-05-17T13:09:32.862Z,10.64
2023-05-17T13:12:03.250Z,10.75
2023-05-17T13:14:43.438Z,10.73
2023-05-17T13:17:25.456Z,10.74
2023-05-17T13:19:54.637Z,10.69
2023-05-17T13:22:23.807Z,10.68
2023-05-17T13:24:51.962Z,10.63
2023-05-17T13:27:20.101Z,10.65
2023-05-17T13:29:48.186Z,10.55
2023-05-17T13:32:16.442Z,10.62
2023-05-17T13:34:44.286Z,10.63
2023-05-17T13:37:12.923Z,10.50
2023-05-17T13:39:42.038Z,10.65
2023-05-17T13:42:11.166Z,10.73
2023-05-17T13:44:39.644Z,10.77
2023-05-17T13:47:07.770Z,10.65
2023-05-17T13:49:36.199Z,10.68
2023-05-17T13:52:08.415Z,10.62
2023-05-17T13:54:37.943Z,10.69
2023-05-17T13:57:06.623Z,10.72
2023-05-17T13:59:34.526Z,10.69
2023-05-17T14:02:02.405Z,10.66
2023-05-17T14:04:30.405Z,10.67
2023-05-17T14:06:58.477Z,10.73
2023-05-17T14:09:26.381Z,10.67
2023-05-17T14:11:54.256Z,10.71
2023-05-17T14:14:25.009Z,10.67
2023-05-17T14:16:53.141Z,10.65
2023-05-17T14:19:21.218Z,10.68
2023-05-17T14:21:50.187Z,10.72
2023-05-17T14:24:18.186Z,10.64
2023-05-17T14:26:46.192Z,10.60
2023-05-17T14:29:14.205Z,10.67
2023-05-17T14:31:42.502Z,10.72
2023-05-17T14:34:10.380Z,10.67
2023-05-17T14:36:39.368Z,10.61
2023-05-17T14:39:07.710Z,10.65
2023-05-17T14:41:35.660Z,10.61
2023-05-17T14:44:03.590Z,10.57
2023-05-17T14:46:31.577Z,10.63
2023-05-17T14:48:59.491Z,10.68
2023-05-17T14:51:27.585Z,10.70
2023-05-17T14:53:55.540Z,10.78
2023-05-17T14:56:23.743Z,10.80
2023-05-17T14:58:52.075Z,10.87
2023-05-17T15:01:21.026Z,10.83
2023-05-17T15:03:49.052Z,10.80
2023-05-17T15:06:17.381Z,10.82
2023-05-17T15:08:45.319Z,10.89
2023-05-17T15:11:13.771Z,10.78
2023-05-17T15:13:41.745Z,10.74
2023-05-17T15:16:09.734Z,10.77
2023-05-17T15:18:38.172Z,10.77
2023-05-17T15:21:06.049Z,10.82
2023-05-17T15:23:34.054Z,10.83
2023-05-17T15:26:01.932Z,10.80
2023-05-17T15:28:30.020Z,10.79
2023-05-17T15:31:10.603Z,10.69
2023-05-17T15:33:45.112Z,10.75
2023-05-17T15:36:15.024Z,10.63
2023-05-17T15:38:43.257Z,10.64
2023-05-17T15:41:14.372Z,10.56
2023-05-17T15:43:42.635Z,10.52
2023-05-17T15:46:11.858Z,10.60
2023-05-17T15:48:40.017Z,10.66
2023-05-17T15:51:08.016Z,10.70
2023-05-17T15:53:36.122Z,10.62
2023-05-17T15:56:04.712Z,10.52
2023-05-17T15:58:33.601Z,10.52
2023-05-17T16:01:06.514Z,10.36
2023-05-17T16:03:35.390Z,10.41
2023-05-17T16:06:05.211Z,10.51
2023-05-17T16:08:34.198Z,10.42
2023-05-17T16:11:03.469Z,10.33
2023-05-17T16:13:31.910Z,10.47
2023-05-17T16:16:00.655Z,10.43
2023-05-17T16:18:31.379Z,10.49
2023-05-17T16:21:03.834Z,10.52
2023-05-17T16:23:32.977Z,10.57
2023-05-17T16:26:02.072Z,10.53
2023-05-17T16:28:34.985Z,10.53
2023-05-17T16:31:05.992Z,10.64
2023-05-17T16:33:34.925Z,10.65
2023-05-17T16:36:05.197Z,10.66
2023-05-17T16:38:33.320Z,10.77
2023-05-17T16:41:04.700Z,10.66
2023-05-17T16:43:32.969Z,10.65
2023-05-17T16:46:02.182Z,10.59
2023-05-17T16:48:30.779Z,10.59
2023-05-17T16:51:00.034Z,10.58
2023-05-17T16:53:28.652Z,10.59
2023-05-17T16:55:57.025Z,10.54
2023-05-17T16:58:26.394Z,10.54
2023-05-17T17:00:54.424Z,10.48
2023-05-17T17:03:22.461Z,10.50
2023-05-17T17:05:50.619Z,10.51
2023-05-17T17:08:18.528Z,10.54
2023-05-17T17:10:46.613Z,10.53
2023-05-17T17:13:15.125Z,10.45
2023-05-17T17:15:43.011Z,10.49
2023-05-17T17:18:11.312Z,10.42
2023-05-17T17:20:39.268Z,10.36
2023-05-17T17:23:07.452Z,10.34
2023-05-17T17:25:35.375Z,10.32
2023-05-17T17:28:03.342Z,10.33
2023-05-17T17:30:31.646Z,10.32
2023-05-17T17:33:00.388Z,10.29
2023-05-17T17:35:28.483Z,10.26
2023-05-17T17:37:56.499Z,10.19
2023-05-17T17:40:24.479Z,10.17
2023-05-17T17:42:52.354Z,10.13
2023-05-17T17:45:20.409Z,9.98
2023-05-17T17:47:48.338Z,9.93
2023-05-17T17:50:16.243Z,9.98
2023-05-17T17:52:44.119Z,10.01
2023-05-17T17:55:13.236Z,9.92
2023-05-17T17:57:41.812Z,9.96
2023-05-17T18:00:11.944Z,9.93
2023-05-17T18:02:40.797Z,9.99
2023-05-17T18:05:10.143Z,9.89
2023-05-17T18:07:38.710Z,9.89
2023-05-17T18:10:07.443Z,9.88
2023-05-17T18:12:35.375Z,9.93
2023-05-17T18:15:03.713Z,9.87
2023-05-17T18:17:31.678Z,9.87
2023-05-17T18:19:59.634Z,9.81
2023-05-17T18:22:29.414Z,9.86
2023-05-17T18:25:00.422Z,9.81
2023-05-17T18:27:28.335Z,9.91
2023-05-17T18:29:56.420Z,9.83
2023-05-17T18:32:24.493Z,9.73
2023-05-17T18:34:52.461Z,9.74
2023-05-17T18:37:20.425Z,9.74
2023-05-17T18:39:48.325Z,9.69
2023-05-17T18:42:16.330Z,9.72
2023-05-17T18:44:44.212Z,9.69
2023-05-17T18:47:12.323Z,9.54
2023-05-17T18:49:46.668Z,9.66
2023-05-17T18:52:14.840Z,9.63
2023-05-17T18:54:42.742Z,9.59
2023-05-17T18:57:12.149Z,9.59
2023-05-17T18:59:40.154Z,9.62
2023-05-17T19:02:08.386Z,9.56
2023-05-17T19:04:36.664Z,9.59
2023-05-17T19:07:04.931Z,9.58
2023-05-17T19:09:34.487Z,9.47
2023-05-17T19:12:02.423Z,9.53
2023-05-17T19:14:32.952Z,9.59
2023-05-17T19:17:00.886Z,9.63
2023-05-17T19:19:31.097Z,9.50
2023-05-17T19:22:00.691Z,9.48
2023-05-17T19:24:28.688Z,9.44
2023-05-17T19:26:56.695Z,9.49
2023-05-17T19:29:24.830Z,9.49
2023-05-17T19:31:52.976Z,9.49
2023-05-17T19:34:21.188Z,9.49
2023-05-17T19:36:49.111Z,9.49
2023-05-17T19:39:21.114Z,9.24
2023-05-17T19:41:49.054Z,9.39
2023-05-17T19:44:16.941Z,9.24
2023-05-17T19:46:44.951Z,9.30
2023-05-17T19:49:13.399Z,9.30
2023-05-17T19:51:41.294Z,9.45
2023-05-17T19:54:09.165Z,9.36
2023-05-17T19:56:37.225Z,9.35
2023-05-17T19:59:05.289Z,9.42
2023-05-17T20:01:33.160Z,9.30
2023-05-17T20:04:01.236Z,9.33
2023-05-17T20:06:29.458Z,9.12
2023-05-17T20:08:57.399Z,9.30
2023-05-17T20:11:25.849Z,9.39
2023-05-17T20:13:53.789Z,9.30
2023-05-17T20:16:22.183Z,9.35
2023-05-17T20:18:50.183Z,9.30
2023-05-17T20:21:22.877Z,9.34
2023-05-17T20:23:56.517Z,9.32
2023-05-17T20:26:26.067Z,9.30
2023-05-17T20:28:54.030Z,9.29
2023-05-17T20:31:22.063Z,9.33
2023-05-17T20:33:50.048Z,9.38
2023-05-17T20:36:18.483Z,9.30
2023-05-17T20:38:46.615Z,9.36
2023-05-17T20:41:15.952Z,9.36
2023-05-17T20:43:49.688Z,9.25
2023-05-17T20:46:18.661Z,9.27
2023-05-17T20:48:48.197Z,9.31
2023-05-17T20:51:17.789Z,9.33
2023-05-17T20:53:46.554Z,9.35
2023-05-17T20:56:14.518Z,9.29
2023-05-17T20:58:42.481Z,9.24
2023-05-17T21:01:10.719Z,9.31
2023-05-17T21:03:39.871Z,9.30
2023-05-17T21:06:08.347Z,9.31
2023-05-17T21:08:36.383Z,9.36
2023-05-17T21:11:04.345Z,9.33
2023-05-17T21:13:32.276Z,9.29
2023-05-17T21:16:00.364Z,9.26
2023-05-17T21:18:28.360Z,9.25
2023-05-17T21:20:56.333Z,9.24
2023-05-17T21:23:24.191Z,9.20
2023-05-17T21:25:52.378Z,9.18
2023-05-17T21:28:20.652Z,9.16
2023-05-17T21:30:48.557Z,9.23
2023-05-17T21:33:16.442Z,9.23
2023-05-17T21:35:44.382Z,9.02
2023-05-17T21:38:12.298Z,9.21
2023-05-17T21:40:40.521Z,9.22
2023-05-17T21:43:09.860Z,9.19
2023-05-17T21:45:38.760Z,9.05
2023-05-17T21:48:07.187Z,9.19
2023-05-17T21:50:35.111Z,9.18
2023-05-17T21:53:03.183Z,9.11
2023-05-17T21:55:36.410Z,9.18
2023-05-17T21:58:16.352Z,9.19
2023-05-17T22:00:44.420Z,9.14
2023-05-17T22:03:12.487Z,9.05
2023-05-17T22:05:40.592Z,9.04
2023-05-17T22:08:08.525Z,9.01
2023-05-17T22:10:37.454Z,9.01
2023-05-17T22:13:06.162Z,9.07
2023-05-17T22:15:35.675Z,9.04
2023-05-17T22:18:03.908Z,9.08
2023-05-17T22:20:31.852Z,9.02
2023-05-17T22:22:59.968Z,9.03
2023-05-17T22:25:28.701Z,9.04
2023-05-17T22:27:56.631Z,9.03
2023-05-17T22:30:24.569Z,9.05
2023-05-17T22:32:54.777Z,9.03
2023-05-17T22:35:24.031Z,9.17
2023-05-17T22:37:53.421Z,8.98
2023-05-17T22:40:21.419Z,8.90
2023-05-17T22:42:51.471Z,8.94
2023-05-17T22:45:19.394Z,8.92
2023-05-17T22:47:47.621Z,8.87
2023-05-17T22:50:15.849Z,9.00
2023-05-17T22:52:46.403Z,8.95
2023-05-17T22:55:14.319Z,8.98
2023-05-17T22:57:42.578Z,8.92
2023-05-17T23:00:11.382Z,9.02
2023-05-17T23:02:39.504Z,9.03
2023-05-17T23:05:07.685Z,8.94
2023-05-17T23:07:39.524Z,9.00
2023-05-17T23:10:09.601Z,8.91
2023-05-17T23:12:37.758Z,8.94
2023-05-17T23:15:06.452Z,8.99
2023-05-17T23:17:35.591Z,8.97
2023-05-17T23:20:13.053Z,9.04
2023-05-17T23:22:41.081Z,9.10
2023-05-17T23:25:09.567Z,8.98
2023-05-17T23:27:37.510Z,9.06
2023-05-17T23:30:06.092Z,8.98
2023-05-17T23:32:34.286Z,9.02
2023-05-17T23:35:05.200Z,9.07
2023-05-17T23:37:35.745Z,9.02
2023-05-17T23:40:09.391Z,9.02
2023-05-17T23:42:37.641Z,8.94
2023-05-17T23:45:07.481Z,8.92
2023-05-17T23:47:35.439Z,8.91
2023-05-17T23:50:03.451Z,8.97
2023-05-17T23:52:32.936Z,8.98
2023-05-17T23:55:01.599Z,9.07
2023-05-17T23:57:30.210Z,9.00
2023-05-17T23:59:58.173Z,9.02
